Map

Track Data

SID SEASON NUMBER BASIN SUBBASIN NAME ISO_TIME NATURE LAT LON WMO_WIND WMO_PRES WMO_AGENCY TRACK_TYPE DIST2LAND LANDFALL IFLAG USA_AGENCY USA_ATCF_ID USA_LAT USA_LON USA_RECORD USA_STATUS USA_WIND USA_PRES USA_SSHS USA_R34_NE USA_R34_SE USA_R34_SW USA_R34_NW USA_R50_NE USA_R50_SE USA_R50_SW USA_R50_NW USA_R64_NE USA_R64_SE USA_R64_SW USA_R64_NW USA_POCI USA_ROCI USA_RMW USA_EYE TOKYO_LAT TOKYO_LON TOKYO_GRADE TOKYO_WIND TOKYO_PRES TOKYO_R50_DIR TOKYO_R50_LONG TOKYO_R50_SHORT TOKYO_R30_DIR TOKYO_R30_LONG TOKYO_R30_SHORT TOKYO_LAND CMA_LAT CMA_LON CMA_CAT CMA_WIND CMA_PRES HKO_LAT HKO_LON HKO_CAT HKO_WIND HKO_PRES NEWDELHI_LAT NEWDELHI_LON NEWDELHI_GRADE NEWDELHI_WIND NEWDELHI_PRES NEWDELHI_CI NEWDELHI_DP NEWDELHI_POCI REUNION_LAT REUNION_LON REUNION_TYPE REUNION_WIND REUNION_PRES REUNION_TNUM REUNION_CI REUNION_RMW REUNION_R34_NE REUNION_R34_SE REUNION_R34_SW REUNION_R34_NW REUNION_R50_NE REUNION_R50_SE REUNION_R50_SW REUNION_R50_NW REUNION_R64_NE REUNION_R64_SE REUNION_R64_SW REUNION_R64_NW BOM_LAT BOM_LON BOM_TYPE BOM_WIND BOM_PRES BOM_TNUM BOM_CI BOM_RMW BOM_R34_NE BOM_R34_SE BOM_R34_SW BOM_R34_NW BOM_R50_NE BOM_R50_SE BOM_R50_SW BOM_R50_NW BOM_R64_NE BOM_R64_SE BOM_R64_SW BOM_R64_NW BOM_ROCI BOM_POCI BOM_EYE BOM_POS_METHOD BOM_PRES_METHOD NADI_LAT NADI_LON NADI_CAT NADI_WIND NADI_PRES WELLINGTON_LAT WELLINGTON_LON WELLINGTON_WIND WELLINGTON_PRES DS824_LAT DS824_LON DS824_STAGE DS824_WIND DS824_PRES TD9636_LAT TD9636_LON TD9636_STAGE TD9636_WIND TD9636_PRES TD9635_LAT TD9635_LON TD9635_WIND TD9635_PRES TD9635_ROCI NEUMANN_LAT NEUMANN_LON NEUMANN_CLASS NEUMANN_WIND NEUMANN_PRES MLC_LAT MLC_LON MLC_CLASS MLC_WIND MLC_PRES USA_GUST BOM_GUST BOM_GUST_PER REUNION_GUST REUNION_GUST_PER USA_SEAHGT USA_SEARAD_NE USA_SEARAD_SE USA_SEARAD_SW USA_SEARAD_NW STORM_SPEED STORM_DIR
2005349N06090 2005 112 NI BB NOT_NAMED 2005-12-14 18:00:00 NR 6.40000 89.9000 main 593 593 O_____________ jtwc_io IO072005 6.40000 89.9000 DB 15 1005 -3 1008 180 50 13 314
2005349N06090 2005 112 NI BB NOT_NAMED 2005-12-14 21:00:00 NR 6.86259 89.4101 main 658 658 P_____________ IO072005 6.86259 89.4101 DB 15 1005 -3 1008 180 50 13 312
2005349N06090 2005 112 NI BB NOT_NAMED 2005-12-15 00:00:00 NR 7.30000 88.9000 main 722 720 O_____________ jtwc_io IO072005 7.30000 88.9000 DB 15 1006 -3 1008 180 50 13 308
2005349N06090 2005 112 NI BB NOT_NAMED 2005-12-15 03:00:00 NR 7.68745 88.3575 main 721 660 P_____________ IO072005 7.68745 88.3575 DB 20 1004 -3 1008 180 50 13 303
2005349N06090 2005 112 NI BB NOT_NAMED 2005-12-15 06:00:00 TS 8.00000 87.8000 main 660 610 O_____________ jtwc_io IO072005 8.00000 87.8000 TD 25 1002 -1 1008 180 50 13 298
2005349N06090 2005 112 NI BB NOT_NAMED 2005-12-15 09:00:00 TS 8.27495 87.2426 main 600 556 P_____________ IO072005 8.27495 87.2426 TD 25 1002 -1 1008 185 50 11 287
2005349N06090 2005 112 NI BB NOT_NAMED 2005-12-15 12:00:00 TS 8.32000 86.7600 25 1006 newdelhi main 556 511 O___O_________ jtwc_io IO072005 8.40000 86.7000 TD 25 1002 -1 1008 190 50 8.00000 87.0000 D 25 1006 1.50000 4 8 265
2005349N06090 2005 112 NI BB NOT_NAMED 2005-12-15 15:00:00 TS 8.20669 86.4315 25 1004 newdelhi main 511 499 P___O_________ IO072005 8.31004 86.1473 TD 25 1002 -1 1008 190 45 8.00000 87.0000 D 25 1004 1.50000 4 6 242
2005349N06090 2005 112 NI BB NOT_NAMED 2005-12-15 18:00:00 TS 8.05714 86.2571 25 1004 newdelhi main 499 485 O___O_________ jtwc_io IO072005 8.10000 85.7000 TD 25 1002 -1 1008 190 40 8.00000 87.0000 D 25 1004 1.50000 4 3 218
2005349N06090 2005 112 NI BB NOT_NAMED 2005-12-15 21:00:00 TS 7.94245 86.2275 25 1004 newdelhi main 485 485 P___O_________ IO072005 7.88489 85.4550 TD 25 1002 -1 8.00000 87.0000 D 25 1004 1.50000 4 2 206
2005349N06090 2005 112 NI BB NOT_NAMED 2005-12-16 00:00:00 TS 7.85000 86.1500 25 1004 newdelhi main 485 364 O___O_________ jtwc_io IO072005 7.70000 85.3000 TD 25 1002 -1 8.00000 87.0000 D 25 1004 1.50000 4 12 263
2005349N06090 2005 112 NI BB NOT_NAMED 2005-12-16 03:00:00 TS 7.80625 85.0500 25 1002 newdelhi main 364 342 P___O_________ IO072005 7.61249 85.1000 TD 25 1002 -1 8.00000 85.0000 D 25 1002 1.50000 4 12 268
2005349N06090 2005 112 NI BB NOT_NAMED 2005-12-16 06:00:00 TS 7.80000 84.9500 25 1002 newdelhi main 353 309 O___O_________ jtwc_io IO072005 7.60000 84.9000 TD 25 1002 -1 1008 190 40 8.00000 85.0000 D 25 1002 1.50000 4 5 271
2005349N06090 2005 112 NI BB NOT_NAMED 2005-12-16 09:00:00 TS 7.81750 84.5963 25 1002 newdelhi main 309 298 P___O_________ IO072005 7.63500 84.6925 TD 27 1001 -1 8.00000 84.5000 D 25 1002 1.50000 4 4 276
2005349N06090 2005 112 NI BB NOT_NAMED 2005-12-16 12:00:00 TS 7.85000 84.5000 25 1002 newdelhi main 299 288 O___O_________ jtwc_io IO072005 7.70000 84.5000 TD 30 1000 -1 8.00000 84.5000 D 25 1002 1.50000 4 2 287
2005349N06090 2005 112 NI BB NOT_NAMED 2005-12-16 15:00:00 TS 7.87125 84.4175 25 1002 newdelhi main 288 288 P___O_________ IO072005 7.74249 84.3350 TD 32 998 -1 8.00000 84.5000 D 25 1002 1.50000 4 2 288
2005349N06090 2005 112 NI BB NOT_NAMED 2005-12-16 18:00:00 TS 7.90000 84.3500 25 1002 newdelhi main 288 277 O___O_________ jtwc_io IO072005 7.80000 84.2000 TS 35 997 0 1008 190 40 8.00000 84.5000 D 25 1002 1.50000 4 1 298
2005349N06090 2005 112 NI BB NOT_NAMED 2005-12-16 21:00:00 TS 7.93500 84.2962 25 1002 newdelhi main 277 246 P___O_________ IO072005 7.86999 84.0925 TS 35 997 0 1008 190 40 8.00000 84.5000 D 25 1002 1.50000 4 4 286
2005349N06090 2005 112 NI BB NOT_NAMED 2005-12-17 00:00:00 TS 8.00000 84.0000 25 1002 newdelhi main 246 246 O___O_________ jtwc_io IO072005 8.00000 84.0000 TS 35 997 0 1008 190 40 8.00000 84.0000 D 25 1002 1.50000 4 4 297
2005349N06090 2005 112 NI BB NOT_NAMED 2005-12-17 03:00:00 TS 8.10999 83.9575 30 1000 newdelhi main 248 241 P___O_________ IO072005 8.21999 83.9150 TS 35 997 0 1008 190 40 8.00000 84.0000 DD 30 1000 2.00000 5 3 339
2005349N06090 2005 112 NI BB NOT_NAMED 2005-12-17 06:00:00 TS 8.25000 83.9000 30 1000 newdelhi main 244 222 O___O_________ jtwc_io IO072005 8.50000 83.8000 TS 35 997 0 1008 190 40 8.00000 84.0000 DD 30 1000 2.00000 5 7 323
2005349N06090 2005 112 NI BB NOT_NAMED 2005-12-17 09:00:00 TS 8.64626 83.5538 30 1000 newdelhi main 227 223 P___O_________ IO072005 8.79252 83.6075 TS 35 997 0 1008 190 40 8.50000 83.5000 DD 30 1000 2.00000 5 7 321
2005349N06090 2005 112 NI BB NOT_NAMED 2005-12-17 12:00:00 TS 8.80000 83.4500 30 1000 newdelhi main 227 217 O___O_________ jtwc_io IO072005 9.10000 83.4000 TS 35 997 0 1008 190 40 8.50000 83.5000 DD 30 1000 2.00000 5 4 328
2005349N06090 2005 112 NI BB NOT_NAMED 2005-12-17 15:00:00 TS 8.94625 83.3637 30 1000 newdelhi main 222 207 P___O_________ IO072005 9.39250 83.2275 TS 37 995 0 1008 190 40 8.50000 83.5000 DD 30 1000 2.00000 5 7 324
2005349N06090 2005 112 NI BB NOT_NAMED 2005-12-17 18:00:00 TS 9.35000 83.0500 30 1000 newdelhi main 217 208 O___O_________ jtwc_io IO072005 9.70000 83.1000 TS 40 994 0 1008 190 40 9.00000 83.0000 DD 30 1000 2.00000 5 7 329
2005349N06090 2005 112 NI BB NOT_NAMED 2005-12-17 21:00:00 TS 9.53249 83.0137 30 1000 newdelhi main 214 214 P___O_________ IO072005 10.0650 83.0275 TS 42 992 0 1008 190 40 9.00000 83.0000 DD 30 1000 2.00000 5 6 355
2005349N06090 2005 112 NI BB NOT_NAMED 2005-12-18 00:00:00 TS 9.95000 83.0000 30 1000 newdelhi main 245 245 O___O_________ jtwc_io IO072005 10.4000 83.0000 TS 45 991 0 60 50 40 50 1008 190 40 9.50000 83.0000 DD 30 1000 2.00000 5 8 359
2005349N06090 2005 112 NI BB NOT_NAMED 2005-12-18 03:00:00 TS 10.3187 82.9962 30 1000 newdelhi main 265 265 P___O_________ IO072005 10.6375 82.9925 TS 45 991 0 60 50 40 55 1008 195 32 10.0000 83.0000 DD 30 1000 2.00000 5 5 0
2005349N06090 2005 112 NI BB NOT_NAMED 2005-12-18 06:00:00 TS 10.4000 83.0000 30 1000 newdelhi main 270 263 O___O_________ jtwc_io IO072005 10.8000 83.0000 TS 45 991 0 60 50 40 60 1008 200 25 10.0000 83.0000 DD 30 1000 2.00000 5 5 329
2005349N06090 2005 112 NI BB NOT_NAMED 2005-12-18 09:00:00 TS 10.7113 82.7500 30 1000 newdelhi main 269 260 P___O_________ IO072005 10.9225 83.0000 TS 45 991 0 60 50 40 60 1007 190 25 10.5000 82.5000 DD 30 1000 2.00000 5 4 325
2005349N06090 2005 112 NI BB NOT_NAMED 2005-12-18 12:00:00 TS 10.7500 82.7500 30 1000 newdelhi main 276 260 O___O_________ jtwc_io IO072005 11.0000 83.0000 TS 45 991 0 60 50 40 60 1006 180 25 10.5000 82.5000 DD 30 1000 2.00000 5 1 10
2005349N06090 2005 112 NI BB NOT_NAMED 2005-12-18 15:00:00 TS 10.7788 82.7500 30 1000 newdelhi main 276 276 P___O_________ IO072005 11.0575 83.0000 TS 45 991 0 60 50 45 60 1006 180 25 10.5000 82.5000 DD 30 1000 2.00000 5 3 0
2005349N06090 2005 112 NI BB NOT_NAMED 2005-12-18 18:00:00 TS 11.0500 82.7500 30 1000 newdelhi main 297 289 O___O_________ jtwc_io IO072005 11.1000 83.0000 TS 45 991 0 60 50 50 60 1006 180 25 11.0000 82.5000 DD 30 1000 2.00000 5 3 0
2005349N06090 2005 112 NI BB NOT_NAMED 2005-12-18 21:00:00 TS 11.0750 82.7425 30 1000 newdelhi main 289 289 P___O_________ IO072005 11.1500 82.9850 TS 45 991 0 60 50 50 60 1006 180 25 11.0000 82.5000 DD 30 1000 2.00000 5 1 27
2005349N06090 2005 112 NI BB NOT_NAMED 2005-12-19 00:00:00 TS 11.1000 82.7500 30 1000 newdelhi main 297 297 O___O_________ jtwc_io IO072005 11.2000 83.0000 TS 45 991 0 60 50 50 60 1006 180 25 11.0000 82.5000 DD 30 1000 2.00000 5 1 39
2005349N06090 2005 112 NI BB NOT_NAMED 2005-12-19 03:00:00 TS 11.1363 82.7925 30 1000 newdelhi main 297 297 P___O_________ IO072005 11.2725 83.0850 TS 45 991 0 60 50 47 62 1006 180 25 11.0000 82.5000 DD 30 1000 2.00000 5 1 63
2005349N06090 2005 112 NI BB NOT_NAMED 2005-12-19 06:00:00 TS 11.1500 82.8500 30 1000 newdelhi main 313 297 O___O_________ jtwc_io IO072005 11.3000 83.2000 TS 45 991 0 60 50 45 65 1006 180 25 11.0000 82.5000 DD 30 1000 2.00000 5 1 107
2005349N06090 2005 112 NI BB NOT_NAMED 2005-12-19 09:00:00 TS 11.1037 82.8963 30 1000 newdelhi main 305 298 P___O_________ IO072005 11.2075 83.2925 TS 45 991 0 60 50 45 65 1006 180 25 11.0000 82.5000 DD 30 1000 2.00000 5 1 137
2005349N06090 2005 112 NI BB NOT_NAMED 2005-12-19 12:00:00 TS 11.0500 82.9500 30 1000 newdelhi main 314 305 O___O_________ jtwc_io IO072005 11.1000 83.4000 TS 45 991 0 60 50 45 65 1006 180 25 11.0000 82.5000 DD 30 1000 2.00000 5 2 34
2005349N06090 2005 112 NI BB NOT_NAMED 2005-12-19 15:00:00 TS 11.2888 83.0250 30 1000 newdelhi main 328 328 P___O_________ IO072005 11.0775 83.5500 TS 45 991 0 60 50 45 65 1006 175 25 11.5000 82.5000 DD 30 1000 2.00000 5 3 31
2005349N06090 2005 112 NI BB NOT_NAMED 2005-12-19 18:00:00 TS 11.3000 83.1000 30 1000 newdelhi main 337 337 O___O_________ jtwc_io IO072005 11.1000 83.7000 TS 45 991 0 60 50 45 65 1006 170 25 11.5000 82.5000 DD 30 1000 2.00000 5 1 77
2005349N06090 2005 112 NI BB NOT_NAMED 2005-12-19 21:00:00 TS 11.3175 83.1537 30 1000 newdelhi main 345 345 P___O_________ IO072005 11.1350 83.8075 TS 42 992 0 55 45 40 57 1006 170 25 11.5000 82.5000 DD 30 1000 2.00000 5 3 82
2005349N06090 2005 112 NI BB NOT_NAMED 2005-12-20 00:00:00 TS 11.3500 83.4500 30 1000 newdelhi main 377 362 O___O_________ jtwc_io IO072005 11.2000 83.9000 TS 40 994 0 50 40 35 50 1006 170 25 11.5000 83.0000 DD 30 1000 2.00000 5 6 83
2005349N06090 2005 112 NI BB NOT_NAMED 2005-12-20 03:00:00 TS 11.3925 83.7500 30 1000 newdelhi main 403 403 P___O_________ IO072005 11.2850 84.0000 TS 40 994 0 50 40 37 50 1006 165 25 11.5000 83.5000 DD 30 1000 2.00000 5 6 80
2005349N06090 2005 112 NI BB NOT_NAMED 2005-12-20 06:00:00 TS 11.4500 84.0500 25 1002 newdelhi main 437 431 O___O_________ jtwc_io IO072005 11.4000 84.1000 TS 40 994 0 50 40 40 50 1006 160 25 11.5000 84.0000 D 25 1002 1.50000 4 7 57
2005349N06090 2005 112 NI BB NOT_NAMED 2005-12-20 09:00:00 TS 11.7787 84.3500 25 1002 newdelhi main 452 452 P___O_________ IO072005 11.5575 84.2000 TS 37 995 0 50 40 40 50 1006 160 25 12.0000 84.5000 D 25 1002 1.50000 4 5 41
2005349N06090 2005 112 NI BB NOT_NAMED 2005-12-20 12:00:00 TS 11.8500 84.4000 25 1002 newdelhi main 461 461 O___O_________ jtwc_io IO072005 11.7000 84.3000 TS 35 997 0 50 40 40 50 1006 160 25 12.0000 84.5000 D 25 1002 1.50000 4 2 39
2005349N06090 2005 112 NI BB NOT_NAMED 2005-12-20 15:00:00 TS 11.8937 84.4500 25 1002 newdelhi main 472 461 P___O_________ IO072005 11.7875 84.4000 TS 35 997 0 50 40 40 50 1006 150 25 12.0000 84.5000 D 25 1002 1.50000 4 1 63
2005349N06090 2005 112 NI BB NOT_NAMED 2005-12-20 18:00:00 TS 11.9000 84.5000 25 1002 newdelhi main 472 472 O___O_________ jtwc_io IO072005 11.8000 84.5000 TS 35 997 0 50 40 40 50 1006 140 25 12.0000 84.5000 D 25 1002 1.50000 4 1 105
2005349N06090 2005 112 NI BB NOT_NAMED 2005-12-20 21:00:00 TS 11.8612 84.5688 25 1002 newdelhi main 483 483 P___O_________ IO072005 11.7225 84.6376 TS 35 997 0 50 40 40 50 1006 100 25 12.0000 84.5000 D 25 1002 1.50000 4 1 137
2005349N06090 2005 112 NI BB NOT_NAMED 2005-12-21 00:00:00 TS 11.8000 84.6000 25 1002 newdelhi main 484 476 O___O_________ jtwc_io IO072005 11.6000 84.7000 TS 35 997 0 50 40 40 50 1006 60 25 12.0000 84.5000 D 25 1002 1.50000 4 1 198
2005349N06090 2005 112 NI BB NOT_NAMED 2005-12-21 03:00:00 TS 11.7313 84.5212 25 1002 newdelhi main 476 476 P___O_________ IO072005 11.4625 84.5424 TS 32 998 -1 1007 135 30 12.0000 84.5000 D 25 1002 1.50000 4 2 236
2005349N06090 2005 112 NI BB NOT_NAMED 2005-12-21 06:00:00 TS 11.7000 84.4500 25 1002 newdelhi main 476 465 O___O_________ jtwc_io IO072005 11.4000 84.4000 TD 30 1000 -1 1008 210 35 12.0000 84.5000 D 25 1002 1.50000 4 0 0
2005349N06090 2005 112 NI BB NOT_NAMED 2005-12-21 09:00:00 TS 11.7525 84.5062 25 1002 newdelhi main 474 474 P___O_________ IO072005 11.5050 84.5125 TD 30 1000 -1 1008 210 35 12.0000 84.5000 D 25 1002 1.50000 4 2 44
2005349N06090 2005 112 NI BB NOT_NAMED 2005-12-21 12:00:00 TS 11.8500 84.6000 25 1002 newdelhi main 483 483 O___O_________ jtwc_io IO072005 11.7000 84.7000 TD 30 1000 -1 1008 210 35 12.0000 84.5000 D 25 1002 1.50000 4 2 37
2005349N06090 2005 112 NI BB NOT_NAMED 2005-12-21 15:00:00 TS 11.9462 84.6575 25 1002 newdelhi main 493 491 P___O_________ IO072005 11.8925 84.8150 TD 30 1000 -1 1008 210 37 12.0000 84.5000 D 25 1002 1.50000 4 2 31
2005349N06090 2005 112 NI BB NOT_NAMED 2005-12-21 18:00:00 TS 12.0571 84.7286 25 1002 newdelhi main 491 491 O___O_________ jtwc_io IO072005 12.1000 84.9000 TD 30 1000 -1 1008 210 40 12.0000 84.5000 D 25 1002 1.50000 4 3 28
2005349N06090 2005 112 NI BB NOT_NAMED 2005-12-21 21:00:00 TS 12.2000 84.8000 25 1002 newdelhi main 501 500 P___O_________ IO072005 12.3000 84.9500 TD 30 1000 -1 1008 210 42 12.0000 84.5000 D 25 1002 1.50000 4 4 26
2005349N06090 2005 112 NI BB NOT_NAMED 2005-12-22 00:00:00 TS 12.4000 84.9000 25 1002 newdelhi main 509 506 O___O_________ jtwc_io IO072005 12.5000 85.0000 TD 30 1000 -1 1008 210 45 12.0000 84.5000 D 25 1002 1.50000 4 6 27
2005349N06090 2005 112 NI BB NOT_NAMED 2005-12-22 03:00:00 TS 12.6999 85.0626 main 524 518 P_____________ IO072005 12.6999 85.0626 TD 30 1000 -1 6 30
2005349N06090 2005 112 NI BB NOT_NAMED 2005-12-22 06:00:00 TS 12.9000 85.2000 main 518 514 O_____________ jtwc_io IO072005 12.9000 85.2000 TD 30 1000 -1 5 42
2005349N06090 2005 112 NI BB NOT_NAMED 2005-12-22 09:00:00 TS 13.0999 85.4401 main 514 512 P_____________ IO072005 13.0999 85.4401 TD 27 1001 -1 7 56
2005349N06090 2005 112 NI BB NOT_NAMED 2005-12-22 12:00:00 TS 13.3000 85.8000 main 527 527 O_____________ jtwc_io IO072005 13.3000 85.8000 TD 25 1002 -1 9 63
2005349N06090 2005 112 NI BB NOT_NAMED 2005-12-22 15:00:00 TS 13.5000 86.2551 main 552 552 P_____________ IO072005 13.5000 86.2551 TD 25 1002 -1 11 68
2005349N06090 2005 112 NI BB NOT_NAMED 2005-12-22 18:00:00 TS 13.7000 86.8000 main 582 582 O_____________ jtwc_io IO072005 13.7000 86.8000 TD 25 1002 -1 12 70
2005349N06090 2005 112 NI BB NOT_NAMED 2005-12-22 21:00:00 TS 13.9075 87.3925 main 605 602 P_____________ IO072005 13.9075 87.3925 TD 25 1002 -1 12 71
2005349N06090 2005 112 NI BB NOT_NAMED 2005-12-23 00:00:00 TS 14.1000 88.0000 main 628 628 O_____________ jtwc_io IO072005 14.1000 88.0000 TD 25 1002 -1 12 73
2005349N06090 2005 112 NI BB NOT_NAMED 2005-12-23 03:00:00 TS 14.2649 88.5726 main 630 576 P_____________ IO072005 14.2649 88.5726 TD 25 1002 -1 11 74
2005349N06090 2005 112 NI BB NOT_NAMED 2005-12-23 06:00:00 TS 14.4000 89.1000 main 576 521 O_____________ jtwc_io IO072005 14.4000 89.1000 TD 25 1002 -1 10 78
2005349N06090 2005 112 NI BB NOT_NAMED 2005-12-23 09:00:00 TS 14.4699 89.5803 main 521 477 P_____________ IO072005 14.4699 89.5803 TD 25 1002 -1 9 77
2005349N06090 2005 112 NI BB NOT_NAMED 2005-12-23 12:00:00 TS 14.6000 90.0000 main 477 425 O_____________ jtwc_io IO072005 14.6000 90.0000 TD 25 1002 -1 9 61
2005349N06090 2005 112 NI BB NOT_NAMED 2005-12-23 15:00:00 TS 14.8974 90.3725 main 425 382 P_____________ IO072005 14.8974 90.3725 TD 22 1003 -1 10 44
2005349N06090 2005 112 NI BB NOT_NAMED 2005-12-23 18:00:00 NR 15.3000 90.7000 main 382 344 O_____________ jtwc_io IO072005 15.3000 90.7000 DB 20 1004 -3 10 36
2005349N06090 2005 112 NI BB NOT_NAMED 2005-12-23 21:00:00 NR 15.7426 91.0048 main 344 310 P_____________ IO072005 15.7426 91.0048 DB 20 1004 -3 11 33
2005349N06090 2005 112 NI BB NOT_NAMED 2005-12-24 00:00:00 NR 16.2000 91.3000 main 310 O_____________ jtwc_io IO072005 16.2000 91.3000 DB 20 1004 -3 11 32

About IBTrACS Database

This database is a web-friendly format of International Best Track Archive for Climate Stewardship (IBTrACS), a global best track data archive curated by NOAA dating back to 1842.

Updated: 2021-11-26